Terminal Aerodrome Forecast
Issued by NWS Denver/Boulder, CO

Home | Current Version | Previous Version | Text Only | Print | Product List | Glossary On
Versions: 1 2 3 4 5 6 7 8 9 10 11 12 13 14 15 16 17 18 19 20 21 22 23 24 25 26 27 28 29 30 31 32 33 34 35
000
FTUS45 KBOU 191136
TAFDEN
TAF
KDEN 191136Z 1912/2018 21011KT P6SM BKN200
     FM191900 17020G30KT P6SM SCT120 BKN200
     FM200100 23015G25KT P6SM VCSH SCT080 BKN120 BKN200
     FM200300 30015G25KT P6SM VCSH SCT060 BKN080
     FM200700 05008KT P6SM FEW080 BKN200
     FM201200 22009KT P6SM SCT200=

USA.gov is the U.S. government's official web portal to all federal, state and local government web resources and services.